Time;durP1;ratioP1;P1;durP2;ratioP2;P2;SDS_P1;SDS_P2;PMS_P1;PMS_P2;Temp;Humidity;BMP_temperature;BMP_pressure;BME280_temperature;BME280_humidity;BME280_pressure;Samples;Min_cycle;Max_cycle;Signal;HPM_P1;HPM_P2
2023/03/23 00:00:09;;;;;;;169.50;77.20;;;;;;;;;;5039271;28;20021;-86
2023/03/23 00:02:38;;;;;;;160.45;76.35;;;;;;;;;;5038401;28;20025;-86
2023/03/23 00:05:07;;;;;;;164.38;74.88;;;;;;;;;;5039311;28;20387;-85
2023/03/23 00:07:33;;;;;;;166.63;78.40;;;;;;;;;;5039126;28;20049;-85
2023/03/23 00:10:02;;;;;;;168.45;77.47;;;;;;;;;;5038656;28;20112;-85
2023/03/23 00:12:32;;;;;;;155.45;74.88;;;;;;;;;;5037792;28;20033;-85
2023/03/23 00:15:24;;;;;;;154.15;74.32;;;;;;;;;;5038554;28;20029;-85
2023/03/23 00:17:50;;;;;;;137.48;70.00;;;;;;;;;;5038469;28;20293;-85
2023/03/23 00:20:16;;;;;;;144.60;67.78;;;;;;;;;;5038827;28;20033;-85
2023/03/23 00:22:43;;;;;;;139.10;68.15;;;;;;;;;;5037387;28;20061;-85
2023/03/23 00:25:09;;;;;;;129.20;65.72;;;;;;;;;;5038233;28;20041;-84
2023/03/23 00:27:35;;;;;;;134.30;65.85;;;;;;;;;;5037485;28;20036;-85
2023/03/23 00:30:01;;;;;;;134.88;65.60;;;;;;;;;;5038569;28;20032;-85
2023/03/23 00:32:28;;;;;;;133.63;66.22;;;;;;;;;;5037710;28;20031;-85
2023/03/23 00:34:55;;;;;;;131.60;64.43;;;;;;;;;;5037289;28;20048;-85
2023/03/23 00:37:21;;;;;;;118.97;58.75;;;;;;;;;;5038332;28;20026;-85
2023/03/23 00:39:47;;;;;;;119.50;58.60;;;;;;;;;;5037261;28;20411;-86
2023/03/23 00:42:15;;;;;;;110.28;57.42;;;;;;;;;;5038423;28;20036;-85
2023/03/23 00:44:41;;;;;;;109.03;57.08;;;;;;;;;;5038133;28;20021;-85
2023/03/23 00:47:09;;;;;;;114.63;56.03;;;;;;;;;;5038366;28;20331;-85
2023/03/23 00:49:35;;;;;;;110.38;56.72;;;;;;;;;;5037982;28;20415;-85
2023/03/23 00:52:01;;;;;;;96.60;52.90;;;;;;;;;;5038007;28;20037;-85
2023/03/23 00:54:28;;;;;;;96.88;51.38;;;;;;;;;;5037092;28;20128;-85
2023/03/23 00:56:54;;;;;;;89.63;50.97;;;;;;;;;;5038278;28;20041;-86
2023/03/23 00:59:20;;;;;;;104.60;55.35;;;;;;;;;;5037527;28;20159;-84
2023/03/23 01:04:52;;;;;;;103.50;53.97;;;;;;;;;;5037809;28;20064;-85
2023/03/23 01:07:18;;;;;;;107.00;54.83;;;;;;;;;;5038046;28;20045;-86
2023/03/23 01:09:44;;;;;;;103.43;56.05;;;;;;;;;;5038030;28;20033;-85
2023/03/23 01:12:11;;;;;;;102.38;53.55;;;;;;;;;;5038108;28;20037;-85
2023/03/23 01:14:37;;;;;;;91.82;52.28;;;;;;;;;;5037073;28;20038;-85
2023/03/23 01:17:03;;;;;;;108.07;52.25;;;;;;;;;;5037424;28;20116;-84
2023/03/23 01:19:29;;;;;;;100.90;54.42;;;;;;;;;;5037690;28;20148;-85
2023/03/23 01:21:55;;;;;;;100.63;52.90;;;;;;;;;;5037602;28;20083;-85
2023/03/23 01:24:21;;;;;;;88.78;50.35;;;;;;;;;;5037478;28;20041;-86
2023/03/23 01:26:48;;;;;;;94.88;50.30;;;;;;;;;;5036550;28;20021;-87
2023/03/23 01:29:14;;;;;;;93.72;50.75;;;;;;;;;;5037517;28;20080;-87
2023/03/23 01:31:42;;;;;;;96.40;51.58;;;;;;;;;;5037841;28;20017;-87
2023/03/23 01:34:08;;;;;;;92.25;49.08;;;;;;;;;;5038030;28;20101;-87
2023/03/23 01:36:35;;;;;;;90.20;49.25;;;;;;;;;;5036614;28;20068;-88
2023/03/23 01:39:03;;;;;;;86.35;49.30;;;;;;;;;;5037740;28;20025;-88
2023/03/23 01:41:30;;;;;;;87.95;49.60;;;;;;;;;;5037630;28;20026;-88
2023/03/23 01:44:03;;;;;;;89.18;49.00;;;;;;;;;;5037345;28;20461;-88
2023/03/23 01:46:30;;;;;;;86.70;50.13;;;;;;;;;;5036890;28;20028;-87
2023/03/23 01:48:57;;;;;;;86.35;48.90;;;;;;;;;;5037502;28;20021;-88
2023/03/23 01:51:24;;;;;;;82.18;47.03;;;;;;;;;;5037353;28;20029;-87
2023/03/23 01:54:02;;;;;;;89.45;47.50;;;;;;;;;;5037250;28;20038;-87
2023/03/23 01:56:34;;;;;;;84.45;47.50;;;;;;;;;;5037243;28;20030;-88
2023/03/23 01:59:00;;;;;;;83.97;47.90;;;;;;;;;;5037614;28;20053;-87
2023/03/23 02:04:45;;;;;;;103.88;55.22;;;;;;;;;;5037225;28;20040;-87
2023/03/23 02:07:12;;;;;;;110.65;57.85;;;;;;;;;;5037553;28;20032;-87
2023/03/23 02:09:39;;;;;;;149.43;76.35;;;;;;;;;;5037245;28;20028;-87
2023/03/23 02:12:05;;;;;;;178.20;91.70;;;;;;;;;;5039978;28;20086;-87
2023/03/23 02:14:31;;;;;;;159.38;87.47;;;;;;;;;;5040056;28;20025;-88
2023/03/23 02:17:01;;;;;;;159.85;87.88;;;;;;;;;;5039901;28;20028;-87
2023/03/23 02:19:53;;;;;;;155.90;85.68;;;;;;;;;;5041193;28;20022;-87
2023/03/23 02:22:36;;;;;;;149.93;81.65;;;;;;;;;;5040664;28;20050;-88
2023/03/23 02:25:12;;;;;;;130.40;72.03;;;;;;;;;;5040680;28;20030;-88
2023/03/23 02:27:56;;;;;;;91.32;52.78;;;;;;;;;;5041184;28;20089;-87
2023/03/23 02:30:22;;;;;;;87.57;50.65;;;;;;;;;;5040661;28;20330;-87
2023/03/23 02:33:08;;;;;;;91.40;50.28;;;;;;;;;;5040634;28;20048;-87
2023/03/23 02:35:43;;;;;;;66.03;41.90;;;;;;;;;;5040723;28;20064;-87
2023/03/23 02:38:16;;;;;;;59.65;36.53;;;;;;;;;;5040619;28;20315;-87
2023/03/23 02:40:43;;;;;;;63.22;37.67;;;;;;;;;;5040475;28;20021;-87
2023/03/23 02:43:12;;;;;;;97.50;46.75;;;;;;;;;;5040434;28;20026;-87
2023/03/23 02:45:40;;;;;;;123.97;54.53;;;;;;;;;;5039384;28;20033;-88
2023/03/23 02:48:08;;;;;;;102.70;47.15;;;;;;;;;;5040416;28;20053;-87
2023/03/23 02:50:35;;;;;;;81.43;39.25;;;;;;;;;;5040469;28;20064;-88
2023/03/23 02:53:01;;;;;;;68.30;34.58;;;;;;;;;;5040159;28;20037;-87
2023/03/23 02:55:29;;;;;;;58.72;31.40;;;;;;;;;;5040497;28;20022;-88
2023/03/23 02:57:56;;;;;;;57.90;31.50;;;;;;;;;;5040706;28;20037;-87
2023/03/23 03:00:22;;;;;;;53.13;30.35;;;;;;;;;;5040063;28;20029;-87
2023/03/23 03:02:52;;;;;;;47.10;27.55;;;;;;;;;;5040423;28;20018;-88
2023/03/23 03:05:35;;;;;;;39.55;24.88;;;;;;;;;;5039152;28;20021;-88
2023/03/23 03:08:17;;;;;;;38.35;23.40;;;;;;;;;;5039030;28;20116;-87
2023/03/23 03:10:51;;;;;;;40.17;25.00;;;;;;;;;;5039066;28;20025;-87
2023/03/23 03:13:26;;;;;;;34.22;22.48;;;;;;;;;;5040240;28;20347;-88
2023/03/23 03:16:25;;;;;;;42.70;27.25;;;;;;;;;;5039116;28;20033;-87
2023/03/23 03:18:59;;;;;;;42.80;28.48;;;;;;;;;;5002001;28;20475;-87
2023/03/23 03:21:27;;;;;;;52.00;29.77;;;;;;;;;;5001381;28;20042;-87
2023/03/23 03:23:56;;;;;;;43.33;28.55;;;;;;;;;;5018178;28;20076;-87
2023/03/23 03:26:26;;;;;;;39.70;25.77;;;;;;;;;;5018315;28;20105;-87
2023/03/23 03:28:53;;;;;;;39.42;24.30;;;;;;;;;;5018078;28;20034;-88
2023/03/23 03:34:24;;;;;;;42.45;27.75;;;;;;;;;;5018277;28;20037;-88
2023/03/23 03:36:51;;;;;;;43.63;27.92;;;;;;;;;;5018189;28;20029;-88
2023/03/23 03:39:20;;;;;;;38.70;25.98;;;;;;;;;;5018212;28;20026;-88
2023/03/23 03:41:46;;;;;;;40.72;27.25;;;;;;;;;;5018037;28;20100;-87
2023/03/23 03:44:13;;;;;;;41.72;28.50;;;;;;;;;;5017889;28;20021;-89
2023/03/23 03:46:39;;;;;;;43.47;28.33;;;;;;;;;;5017918;28;20034;-87
2023/03/23 03:49:06;;;;;;;44.50;27.02;;;;;;;;;;5001355;28;20038;-87
2023/03/23 03:51:33;;;;;;;41.90;28.52;;;;;;;;;;5017638;28;20509;-87
2023/03/23 03:54:00;;;;;;;41.08;27.02;;;;;;;;;;5025081;28;20068;-87
2023/03/23 03:56:26;;;;;;;38.22;26.42;;;;;;;;;;5039340;28;20420;-87
2023/03/23 03:58:52;;;;;;;37.60;25.60;;;;;;;;;;5039259;28;20383;-87
2023/03/23 04:01:21;;;;;;;40.25;26.23;;;;;;;;;;5039179;28;20029;-88
2023/03/23 04:03:47;;;;;;;39.50;25.10;;;;;;;;;;5038852;28;20025;-87
2023/03/23 04:06:13;;;;;;;34.45;23.10;;;;;;;;;;5038875;28;20021;-87
2023/03/23 04:08:41;;;;;;;36.28;23.63;;;;;;;;;;5037857;28;20021;-87
2023/03/23 04:11:07;;;;;;;34.80;23.92;;;;;;;;;;5039072;28;20025;-87
2023/03/23 04:13:33;;;;;;;34.53;25.00;;;;;;;;;;5038836;28;20022;-88
2023/03/23 04:16:00;;;;;;;34.85;23.70;;;;;;;;;;5037711;28;20068;-87
2023/03/23 04:18:27;;;;;;;35.38;23.25;;;;;;;;;;5038843;28;20049;-87
2023/03/23 04:20:53;;;;;;;41.17;25.02;;;;;;;;;;5038800;28;20037;-87
2023/03/23 04:23:21;;;;;;;36.70;25.08;;;;;;;;;;5038225;28;20144;-87
2023/03/23 04:25:48;;;;;;;33.90;23.48;;;;;;;;;;5038748;28;20071;-87
2023/03/23 04:28:16;;;;;;;33.83;24.00;;;;;;;;;;5037778;28;20032;-87
2023/03/23 04:30:43;;;;;;;35.55;25.25;;;;;;;;;;5038132;28;20105;-87
2023/03/23 04:33:28;;;;;;;39.53;26.17;;;;;;;;;;5037635;28;20083;-86
2023/03/23 04:35:56;;;;;;;42.42;25.85;;;;;;;;;;5038126;28;20036;-87
2023/03/23 04:38:23;;;;;;;44.53;26.85;;;;;;;;;;5038196;28;20030;-87
2023/03/23 04:40:52;;;;;;;38.70;26.30;;;;;;;;;;5038350;28;20148;-87
2023/03/23 04:43:21;;;;;;;41.25;26.67;;;;;;;;;;5038388;28;20074;-86
2023/03/23 04:45:47;;;;;;;41.65;26.65;;;;;;;;;;5038066;28;20427;-87
2023/03/23 04:48:13;;;;;;;39.00;25.75;;;;;;;;;;5037366;28;20037;-87
2023/03/23 04:50:39;;;;;;;34.53;25.15;;;;;;;;;;5038349;28;20037;-86
2023/03/23 04:53:06;;;;;;;37.83;26.52;;;;;;;;;;5038103;28;20029;-86
2023/03/23 04:55:35;;;;;;;40.42;26.73;;;;;;;;;;5036994;28;20033;-87
2023/03/23 04:58:02;;;;;;;37.83;28.40;;;;;;;;;;5038213;28;20359;-86
2023/03/23 05:00:28;;;;;;;42.35;27.33;;;;;;;;;;5038225;28;20052;-87
2023/03/23 05:02:55;;;;;;;41.83;27.60;;;;;;;;;;5036813;28;20025;-87
2023/03/23 05:05:22;;;;;;;42.88;27.13;;;;;;;;;;5038131;28;20024;-86
2023/03/23 05:07:48;;;;;;;43.17;27.50;;;;;;;;;;5037496;28;20400;-86
2023/03/23 05:10:15;;;;;;;39.88;27.50;;;;;;;;;;5037767;28;20029;-87
2023/03/23 05:12:41;;;;;;;42.10;28.67;;;;;;;;;;5037831;28;20196;-86
2023/03/23 05:15:08;;;;;;;44.13;29.55;;;;;;;;;;5037651;28;20030;-87
2023/03/23 05:17:34;;;;;;;43.85;29.27;;;;;;;;;;5037317;28;20343;-87
2023/03/23 05:20:03;;;;;;;44.47;30.23;;;;;;;;;;5037533;28;20408;-87
2023/03/23 05:22:32;;;;;;;46.05;31.45;;;;;;;;;;5037460;28;20068;-87
2023/03/23 05:24:58;;;;;;;42.78;29.35;;;;;;;;;;5037963;28;20040;-87
2023/03/23 05:27:30;;;;;;;43.45;31.00;;;;;;;;;;5037572;28;20032;-87
2023/03/23 05:29:57;;;;;;;42.03;30.80;;;;;;;;;;5037854;28;20284;-86
2023/03/23 05:35:28;;;;;;;43.88;29.48;;;;;;;;;;5037794;28;20033;-87
2023/03/23 05:37:55;;;;;;;45.10;30.45;;;;;;;;;;5037460;28;20404;-87
2023/03/23 05:40:21;;;;;;;43.92;30.02;;;;;;;;;;5037756;28;20076;-87
2023/03/23 05:42:48;;;;;;;44.72;29.30;;;;;;;;;;5037571;28;20289;-86
2023/03/23 05:45:16;;;;;;;48.53;30.88;;;;;;;;;;5038839;28;20035;-87
2023/03/23 05:47:42;;;;;;;50.63;33.55;;;;;;;;;;5041814;28;20093;-87
2023/03/23 05:50:09;;;;;;;49.03;33.92;;;;;;;;;;5041441;28;20022;-87
2023/03/23 05:52:36;;;;;;;47.40;32.45;;;;;;;;;;5041363;28;20124;-86
2023/03/23 05:55:03;;;;;;;45.58;31.35;;;;;;;;;;5041326;28;20037;-87
2023/03/23 05:57:29;;;;;;;42.78;31.02;;;;;;;;;;5040346;28;20056;-87
2023/03/23 05:59:57;;;;;;;45.58;32.10;;;;;;;;;;5041438;28;20025;-87
2023/03/23 06:05:26;;;;;;;44.67;32.63;;;;;;;;;;5041269;28;20063;-86
2023/03/23 06:07:53;;;;;;;49.10;34.40;;;;;;;;;;5041037;28;20034;-86
2023/03/23 06:10:19;;;;;;;49.00;33.65;;;;;;;;;;5041296;28;20075;-86
2023/03/23 06:12:45;;;;;;;45.05;32.95;;;;;;;;;;5041227;28;20029;-87
2023/03/23 06:15:12;;;;;;;52.00;33.50;;;;;;;;;;5041161;28;20014;-86
2023/03/23 06:20:55;;;;;;;48.08;34.33;;;;;;;;;;5041192;28;20040;-87
2023/03/23 06:23:21;;;;;;;49.92;35.83;;;;;;;;;;5040549;28;20053;-87
2023/03/23 06:25:47;;;;;;;49.60;35.55;;;;;;;;;;5039880;28;20022;-87
2023/03/23 06:28:15;;;;;;;48.63;34.67;;;;;;;;;;5040649;28;20120;-87
2023/03/23 06:30:41;;;;;;;46.13;34.83;;;;;;;;;;5039828;28;20021;-87
2023/03/23 06:33:44;;;;;;;49.88;36.67;;;;;;;;;;5040603;28;20029;-87
2023/03/23 06:36:11;;;;;;;53.97;37.78;;;;;;;;;;5039681;28;20029;-87
2023/03/23 06:38:37;;;;;;;47.13;34.60;;;;;;;;;;5040425;28;20071;-87
2023/03/23 06:41:04;;;;;;;51.97;34.25;;;;;;;;;;5039496;28;20025;-87
2023/03/23 06:43:30;;;;;;;47.75;34.97;;;;;;;;;;5040731;28;20021;-86
2023/03/23 06:45:59;;;;;;;49.70;35.13;;;;;;;;;;5040449;28;20048;-87
2023/03/23 06:48:25;;;;;;;45.40;34.20;;;;;;;;;;5040293;28;20079;-87
2023/03/23 06:50:51;;;;;;;46.65;34.03;;;;;;;;;;5040614;28;20096;-87
2023/03/23 06:53:20;;;;;;;50.80;34.45;;;;;;;;;;5039441;28;20037;-87
2023/03/23 06:55:46;;;;;;;48.55;33.47;;;;;;;;;;5039340;28;20029;-86
2023/03/23 06:58:12;;;;;;;55.08;37.95;;;;;;;;;;5039498;28;20025;-87
2023/03/23 07:00:39;;;;;;;53.40;35.20;;;;;;;;;;5040279;28;20089;-87
2023/03/23 07:03:05;;;;;;;54.88;35.33;;;;;;;;;;5039886;28;20030;-87
2023/03/23 07:05:33;;;;;;;51.03;35.85;;;;;;;;;;5040063;28;20423;-87
2023/03/23 07:07:59;;;;;;;44.42;33.30;;;;;;;;;;5038831;28;20297;-87
2023/03/23 07:10:25;;;;;;;52.95;34.38;;;;;;;;;;5039462;28;20416;-87
2023/03/23 07:12:51;;;;;;;81.13;55.75;;;;;;;;;;5039797;28;20071;-87
2023/03/23 07:15:17;;;;;;;62.20;46.70;;;;;;;;;;5039783;28;20021;-86
2023/03/23 07:17:43;;;;;;;45.70;35.30;;;;;;;;;;5039637;28;20039;-86
2023/03/23 07:20:10;;;;;;;44.88;33.65;;;;;;;;;;5039511;28;20080;-87
2023/03/23 07:22:36;;;;;;;47.38;32.95;;;;;;;;;;5039530;28;20056;-87
2023/03/23 07:25:02;;;;;;;46.97;34.85;;;;;;;;;;5038697;28;20033;-86
2023/03/23 07:27:29;;;;;;;43.55;32.90;;;;;;;;;;5039592;28;20415;-86
2023/03/23 07:29:55;;;;;;;44.25;32.67;;;;;;;;;;5039482;28;20033;-86
2023/03/23 07:32:22;;;;;;;39.50;30.65;;;;;;;;;;5039671;28;20097;-86
2023/03/23 07:34:48;;;;;;;44.63;30.40;;;;;;;;;;5038254;28;20419;-86
2023/03/23 07:37:14;;;;;;;37.42;28.63;;;;;;;;;;5038368;28;20029;-87
2023/03/23 07:39:40;;;;;;;40.45;28.00;;;;;;;;;;5039404;28;20033;-86
2023/03/23 07:42:07;;;;;;;40.90;27.48;;;;;;;;;;5039656;28;20404;-86
2023/03/23 07:44:33;;;;;;;36.00;27.40;;;;;;;;;;5038277;28;20033;-86
2023/03/23 07:46:59;;;;;;;37.58;27.65;;;;;;;;;;5038983;28;20083;-86
2023/03/23 07:49:26;;;;;;;38.17;25.90;;;;;;;;;;5039288;28;20025;-86
2023/03/23 07:51:52;;;;;;;37.88;27.08;;;;;;;;;;5038691;28;20034;-86
2023/03/23 07:54:18;;;;;;;37.75;26.45;;;;;;;;;;5039237;28;20327;-86
2023/03/23 07:56:45;;;;;;;38.47;27.08;;;;;;;;;;5038991;28;20396;-86
2023/03/23 07:59:12;;;;;;;35.60;27.30;;;;;;;;;;5038886;28;20030;-86
2023/03/23 08:01:38;;;;;;;40.50;29.60;;;;;;;;;;5038905;28;20342;-86
2023/03/23 08:04:05;;;;;;;45.88;24.58;;;;;;;;;;5038787;28;20121;-87
2023/03/23 08:06:33;;;;;;;30.92;22.67;;;;;;;;;;5038954;28;20021;-86
2023/03/23 08:08:59;;;;;;;29.17;21.90;;;;;;;;;;5038940;28;20311;-86
2023/03/23 08:11:26;;;;;;;29.95;21.17;;;;;;;;;;5038739;28;20072;-86
2023/03/23 08:13:53;;;;;;;36.47;21.60;;;;;;;;;;5038606;28;20071;-86
2023/03/23 08:16:19;;;;;;;30.13;21.08;;;;;;;;;;5038871;28;20029;-86
2023/03/23 08:18:46;;;;;;;35.63;21.67;;;;;;;;;;5037875;28;20052;-87
2023/03/23 08:21:12;;;;;;;34.33;20.15;;;;;;;;;;5037498;28;20033;-86
2023/03/23 08:23:39;;;;;;;32.78;20.80;;;;;;;;;;5037546;28;20029;-86
2023/03/23 08:26:08;;;;;;;28.52;19.02;;;;;;;;;;5038646;28;20414;-86
2023/03/23 08:28:35;;;;;;;24.00;18.40;;;;;;;;;;5037507;28;20021;-86
2023/03/23 08:31:06;;;;;;;23.20;17.98;;;;;;;;;;5037815;28;20301;-86
2023/03/23 08:33:33;;;;;;;27.02;17.33;;;;;;;;;;5038353;28;20104;-86
2023/03/23 08:36:00;;;;;;;24.70;18.30;;;;;;;;;;5037319;28;20056;-87
2023/03/23 08:38:27;;;;;;;22.42;17.77;;;;;;;;;;5038396;28;20025;-87
2023/03/23 08:40:58;;;;;;;25.58;19.23;;;;;;;;;;5037411;28;20112;-86
2023/03/23 08:43:24;;;;;;;24.27;15.52;;;;;;;;;;5038134;28;20068;-86
2023/03/23 08:45:51;;;;;;;24.85;16.70;;;;;;;;;;5038051;28;20028;-86
2023/03/23 08:48:17;;;;;;;22.33;17.67;;;;;;;;;;5036996;28;20053;-85
2023/03/23 08:50:44;;;;;;;27.95;14.80;;;;;;;;;;5037542;28;20034;-86
2023/03/23 08:53:10;;;;;;;18.65;13.88;;;;;;;;;;5038141;28;20037;-86
2023/03/23 08:55:38;;;;;;;22.40;13.63;;;;;;;;;;5038007;28;20020;-85
2023/03/23 08:58:04;;;;;;;20.60;14.05;;;;;;;;;;5036789;28;20053;-85
2023/03/23 09:00:30;;;;;;;16.58;11.45;;;;;;;;;;5038008;28;20028;-86
2023/03/23 09:02:57;;;;;;;15.93;12.13;;;;;;;;;;5036729;28;20026;-86
2023/03/23 09:05:24;;;;;;;14.45;10.43;;;;;;;;;;5037636;28;20036;-86
2023/03/23 09:07:51;;;;;;;14.32;11.00;;;;;;;;;;5037860;28;20418;-86
2023/03/23 09:10:17;;;;;;;19.00;11.40;;;;;;;;;;5037872;28;20021;-86
2023/03/23 09:12:44;;;;;;;16.15;12.52;;;;;;;;;;5037519;28;20032;-86
2023/03/23 09:15:11;;;;;;;18.40;11.07;;;;;;;;;;5037948;28;20025;-86
2023/03/23 09:17:42;;;;;;;17.02;12.18;;;;;;;;;;5037636;28;20049;-86
2023/03/23 09:20:12;;;;;;;19.40;12.25;;;;;;;;;;5037352;28;20021;-86
2023/03/23 09:22:39;;;;;;;19.27;12.52;;;;;;;;;;5037538;28;20053;-85
2023/03/23 09:25:06;;;;;;;16.40;12.48;;;;;;;;;;5037005;28;20034;-86
2023/03/23 09:27:33;;;;;;;19.23;12.18;;;;;;;;;;5037400;28;20026;-86
2023/03/23 09:30:00;;;;;;;17.77;12.93;;;;;;;;;;5037189;28;20029;-85
2023/03/23 09:32:27;;;;;;;15.65;11.45;;;;;;;;;;5037396;28;20404;-85
2023/03/23 09:34:56;;;;;;;16.02;12.32;;;;;;;;;;5037447;28;20033;-86
2023/03/23 09:37:22;;;;;;;17.63;10.60;;;;;;;;;;5037678;28;20406;-85
2023/03/23 09:39:49;;;;;;;17.67;11.07;;;;;;;;;;5037557;28;20033;-85
2023/03/23 09:42:31;;;;;;;20.50;11.00;;;;;;;;;;5037463;28;20334;-85
2023/03/23 09:45:09;;;;;;;15.23;11.10;;;;;;;;;;5037416;28;20025;-85
2023/03/23 09:47:56;;;;;;;18.85;11.05;;;;;;;;;;5036507;28;20029;-85
2023/03/23 09:50:26;;;;;;;15.02;9.27;;;;;;;;;;5036315;28;20017;-85
2023/03/23 09:52:58;;;;;;;9.52;6.43;;;;;;;;;;5037561;28;20032;-85
2023/03/23 09:55:25;;;;;;;10.52;8.45;;;;;;;;;;5037502;28;20049;-85
2023/03/23 09:58:06;;;;;;;10.82;6.35;;;;;;;;;;5036221;28;20108;-86
2023/03/23 10:00:36;;;;;;;8.77;6.43;;;;;;;;;;5036541;28;20041;-86
2023/03/23 10:03:12;;;;;;;10.88;8.60;;;;;;;;;;5036989;28;20470;-85
2023/03/23 10:05:42;;;;;;;13.65;9.43;;;;;;;;;;5037416;28;20053;-85
2023/03/23 10:08:13;;;;;;;15.65;8.77;;;;;;;;;;5037195;28;20032;-85
2023/03/23 10:10:39;;;;;;;14.20;8.18;;;;;;;;;;5037179;28;20029;-86
2023/03/23 10:13:11;;;;;;;7.10;5.07;;;;;;;;;;5036961;28;20064;-85
2023/03/23 10:15:41;;;;;;;6.50;4.43;;;;;;;;;;5036254;28;20033;-86
2023/03/23 10:18:14;;;;;;;10.25;7.00;;;;;;;;;;5037169;28;20064;-85
2023/03/23 10:20:53;;;;;;;8.73;6.65;;;;;;;;;;5036937;28;20416;-86
2023/03/23 10:23:20;;;;;;;12.75;6.63;;;;;;;;;;5036750;28;20132;-85
2023/03/23 10:26:15;;;;;;;10.85;6.75;;;;;;;;;;5036909;28;20029;-86
2023/03/23 10:28:44;;;;;;;8.75;6.20;;;;;;;;;;5034989;28;20038;-85
2023/03/23 10:31:12;;;;;;;10.30;5.68;;;;;;;;;;5018444;28;20116;-85
2023/03/23 10:33:42;;;;;;;7.97;6.60;;;;;;;;;;5038225;28;20034;-85
2023/03/23 10:36:27;;;;;;;11.30;7.03;;;;;;;;;;5038646;28;20038;-85
2023/03/23 10:38:53;;;;;;;10.23;5.80;;;;;;;;;;5038499;28;20043;-85
2023/03/23 10:41:20;;;;;;;11.05;6.32;;;;;;;;;;5021847;28;20125;-86
2023/03/23 10:43:52;;;;;;;8.43;5.63;;;;;;;;;;5021911;28;20021;-85
2023/03/23 10:46:36;;;;;;;10.55;5.82;;;;;;;;;;5038506;28;20156;-86
2023/03/23 10:49:06;;;;;;;12.40;7.65;;;;;;;;;;5038517;28;20032;-85
2023/03/23 10:51:35;;;;;;;9.15;6.20;;;;;;;;;;5038348;28;20036;-85
2023/03/23 10:54:02;;;;;;;10.07;6.57;;;;;;;;;;5038363;28;20029;-86
2023/03/23 10:56:34;;;;;;;22.48;14.25;;;;;;;;;;5038497;28;20036;-85
2023/03/23 10:59:11;;;;;;;16.08;8.73;;;;;;;;;;5038310;28;20033;-85
2023/03/23 11:01:37;;;;;;;12.27;6.72;;;;;;;;;;5038211;28;20026;-85
2023/03/23 11:04:04;;;;;;;11.70;6.90;;;;;;;;;;5021634;28;20028;-85
2023/03/23 11:06:32;;;;;;;12.05;7.57;;;;;;;;;;5039093;28;20034;-85
2023/03/23 11:09:00;;;;;;;11.38;7.95;;;;;;;;;;5038837;28;20053;-85
2023/03/23 11:11:28;;;;;;;11.32;7.35;;;;;;;;;;5039844;28;20025;-85
2023/03/23 11:14:13;;;;;;;12.07;7.97;;;;;;;;;;5039826;28;20026;-86
2023/03/23 11:16:44;;;;;;;11.13;8.25;;;;;;;;;;5039618;28;20025;-86
2023/03/23 11:19:15;;;;;;;16.38;7.95;;;;;;;;;;5039670;28;20419;-85
2023/03/23 11:21:41;;;;;;;12.85;7.30;;;;;;;;;;5038751;28;20446;-86
2023/03/23 11:24:08;;;;;;;13.40;7.18;;;;;;;;;;5039624;28;20029;-86
2023/03/23 11:26:37;;;;;;;11.70;6.50;;;;;;;;;;5039589;28;20139;-86
2023/03/23 11:29:11;;;;;;;9.85;6.00;;;;;;;;;;5038805;28;20035;-86
2023/03/23 11:31:52;;;;;;;9.57;6.75;;;;;;;;;;5039361;28;20100;-86
2023/03/23 11:34:24;;;;;;;9.80;6.57;;;;;;;;;;5038399;28;20171;-86
2023/03/23 11:36:55;;;;;;;8.15;6.95;;;;;;;;;;5038671;28;20037;-86
2023/03/23 11:39:27;;;;;;;8.40;6.03;;;;;;;;;;5039562;28;20036;-86
2023/03/23 11:41:53;;;;;;;11.63;6.25;;;;;;;;;;5038342;28;20029;-86
2023/03/23 11:44:21;;;;;;;10.68;7.43;;;;;;;;;;5038911;28;20025;-86
2023/03/23 11:47:01;;;;;;;10.77;6.88;;;;;;;;;;5039177;28;20022;-86
2023/03/23 11:49:27;;;;;;;9.77;6.20;;;;;;;;;;5039078;28;20022;-86
2023/03/23 11:51:56;;;;;;;8.60;6.30;;;;;;;;;;5039492;28;20032;-86
2023/03/23 11:54:37;;;;;;;9.27;6.18;;;;;;;;;;5039038;28;20327;-86
2023/03/23 11:57:07;;;;;;;11.68;5.85;;;;;;;;;;5038165;28;20125;-86
2023/03/23 11:59:35;;;;;;;9.75;6.55;;;;;;;;;;5038127;28;20034;-86
2023/03/23 12:02:20;;;;;;;9.93;6.75;;;;;;;;;;5039096;28;20026;-86
2023/03/23 12:04:52;;;;;;;8.88;6.07;;;;;;;;;;5037870;28;20065;-86
2023/03/23 12:07:30;;;;;;;12.38;5.53;;;;;;;;;;5038852;28;20120;-86
2023/03/23 12:10:05;;;;;;;12.48;6.30;;;;;;;;;;5037858;28;20347;-86
2023/03/23 12:12:38;;;;;;;9.88;5.72;;;;;;;;;;5038712;28;20431;-86
2023/03/23 12:15:23;;;;;;;12.18;5.93;;;;;;;;;;5038821;28;20052;-86
2023/03/23 12:17:58;;;;;;;8.27;5.20;;;;;;;;;;5037552;28;20415;-86
2023/03/23 12:20:30;;;;;;;11.55;6.57;;;;;;;;;;5038430;28;20429;-86
2023/03/23 12:23:14;;;;;;;6.88;5.22;;;;;;;;;;5037237;28;20141;-86
2023/03/23 12:25:40;;;;;;;7.57;4.88;;;;;;;;;;5037846;28;20045;-86
2023/03/23 12:28:16;;;;;;;8.95;5.88;;;;;;;;;;5038687;28;20022;-85
2023/03/23 12:30:52;;;;;;;11.70;6.07;;;;;;;;;;5037566;28;20029;-86
2023/03/23 12:33:22;;;;;;;7.03;5.85;;;;;;;;;;5038282;28;20036;-86
2023/03/23 12:36:11;;;;;;;13.98;6.68;;;;;;;;;;5037358;28;20037;-85
2023/03/23 12:38:40;;;;;;;8.63;5.38;;;;;;;;;;5038101;28;20041;-86
2023/03/23 12:41:22;;;;;;;10.93;5.20;;;;;;;;;;5037105;28;20026;-86
2023/03/23 12:43:54;;;;;;;9.25;4.82;;;;;;;;;;5038290;28;20030;-86
2023/03/23 12:46:36;;;;;;;10.98;5.05;;;;;;;;;;5037137;28;20038;-86
2023/03/23 12:49:15;;;;;;;5.70;4.85;;;;;;;;;;5038268;28;20029;-86
2023/03/23 12:52:03;;;;;;;16.80;8.35;;;;;;;;;;5038211;28;20442;-86
2023/03/23 12:54:34;;;;;;;26.67;15.00;;;;;;;;;;5037283;28;20042;-86
2023/03/23 12:57:10;;;;;;;11.35;7.47;;;;;;;;;;5036907;28;20029;-86
2023/03/23 12:59:41;;;;;;;10.75;6.75;;;;;;;;;;5037898;28;20028;-86
2023/03/23 13:02:28;;;;;;;15.90;9.05;;;;;;;;;;5037891;28;20029;-86
2023/03/23 13:05:16;;;;;;;13.77;9.63;;;;;;;;;;5037849;28;20051;-86
2023/03/23 13:07:46;;;;;;;9.77;6.47;;;;;;;;;;5037726;28;20033;-86
2023/03/23 13:10:27;;;;;;;11.73;6.13;;;;;;;;;;5037828;28;20029;-86
2023/03/23 13:12:53;;;;;;;8.30;5.73;;;;;;;;;;5037682;28;20021;-86
2023/03/23 13:15:23;;;;;;;7.18;4.95;;;;;;;;;;5036829;28;20313;-86
2023/03/23 13:17:52;;;;;;;7.93;5.70;;;;;;;;;;5037594;28;20051;-86
2023/03/23 13:20:21;;;;;;;8.63;6.55;;;;;;;;;;5037732;28;20037;-86
2023/03/23 13:22:48;;;;;;;10.35;6.20;;;;;;;;;;5036457;28;20053;-86
2023/03/23 13:25:45;;;;;;;7.55;5.97;;;;;;;;;;5037544;28;20076;-86
2023/03/23 13:28:15;;;;;;;10.23;6.30;;;;;;;;;;5035677;28;20030;-86
2023/03/23 13:30:41;;;;;;;10.00;5.93;;;;;;;;;;5019182;28;20079;-86
2023/03/23 13:33:12;;;;;;;13.25;6.65;;;;;;;;;;5019115;28;20036;-86
2023/03/23 13:35:39;;;;;;;9.57;5.68;;;;;;;;;;5035898;28;20030;-86
2023/03/23 13:38:19;;;;;;;7.95;5.53;;;;;;;;;;5035578;28;20348;-86
2023/03/23 13:40:45;;;;;;;8.02;5.35;;;;;;;;;;5019176;28;20033;-86
2023/03/23 13:43:11;;;;;;;6.05;5.38;;;;;;;;;;5035363;28;20029;-86
2023/03/23 13:45:44;;;;;;;10.30;6.47;;;;;;;;;;5019183;28;20033;-86
2023/03/23 13:48:10;;;;;;;9.48;5.40;;;;;;;;;;5035910;28;20046;-86
2023/03/23 13:50:53;;;;;;;8.10;5.75;;;;;;;;;;5035389;28;20064;-86
2023/03/23 13:53:28;;;;;;;8.88;5.95;;;;;;;;;;5035659;28;20049;-85
2023/03/23 13:56:16;;;;;;;7.80;5.15;;;;;;;;;;5035522;28;20018;-86
2023/03/23 13:58:46;;;;;;;13.35;5.07;;;;;;;;;;5035512;28;20091;-86
2023/03/23 14:01:16;;;;;;;8.48;5.97;;;;;;;;;;5019187;28;20116;-86
2023/03/23 14:03:49;;;;;;;7.30;5.10;;;;;;;;;;5035674;28;20036;-86
2023/03/23 14:06:16;;;;;;;7.32;4.70;;;;;;;;;;5038483;28;20354;-86
2023/03/23 14:08:48;;;;;;;13.75;6.53;;;;;;;;;;5041075;28;20025;-86
2023/03/23 14:11:17;;;;;;;9.40;5.88;;;;;;;;;;5040955;28;20426;-86
2023/03/23 14:13:43;;;;;;;10.23;6.32;;;;;;;;;;5040271;28;20120;-85
2023/03/23 14:16:18;;;;;;;8.45;5.68;;;;;;;;;;5039951;28;20376;-86
2023/03/23 14:18:50;;;;;;;17.00;5.75;;;;;;;;;;5040005;28;20064;-86
2023/03/23 14:21:16;;;;;;;;;;;;;;;;;;5041090;28;20025;-86
2023/03/23 14:23:42;;;;;;;9.50;6.05;;;;;;;;;;5040669;28;19909;-86
2023/03/23 14:26:15;;;;;;;9.73;6.22;;;;;;;;;;5039785;28;20029;-86
2023/03/23 14:28:42;;;;;;;13.05;6.15;;;;;;;;;;5039778;28;20029;-86
2023/03/23 14:31:24;;;;;;;15.60;6.78;;;;;;;;;;5040680;28;20013;-86
2023/03/23 14:33:50;;;;;;;11.30;7.43;;;;;;;;;;5040438;28;20029;-86
2023/03/23 14:36:20;;;;;;;17.17;8.13;;;;;;;;;;5040643;28;20254;-86
2023/03/23 14:38:46;;;;;;;12.35;7.15;;;;;;;;;;5039578;28;20033;-86
2023/03/23 14:41:13;;;;;;;11.13;5.82;;;;;;;;;;5039851;28;20041;-86
2023/03/23 14:43:39;;;;;;;15.52;7.47;;;;;;;;;;5040549;28;20021;-86
2023/03/23 14:46:09;;;;;;;13.52;6.70;;;;;;;;;;5039482;28;20017;-86
2023/03/23 14:48:36;;;;;;;11.45;7.10;;;;;;;;;;5040337;28;20422;-86
2023/03/23 14:51:04;;;;;;;19.98;7.30;;;;;;;;;;5039370;28;20045;-85
2023/03/23 14:53:37;;;;;;;12.82;7.22;;;;;;;;;;5040344;28;20030;-86